Time;durP1;ratioP1;P1;durP2;ratioP2;P2;SDS_P1;SDS_P2;PMS_P1;PMS_P2;Temp;Humidity;BMP_temperature;BMP_pressure;BME280_temperature;BME280_humidity;BME280_pressure;Samples;Min_cycle;Max_cycle;Signal;HPM_P1;HPM_P2
2021/08/26 00:00:52;;;;;;;4.27;2.10;;;;;;;13.27;83.06;98307.13;1815917;78;20998;-71
2021/08/26 00:05:59;;;;;;;2.02;1.42;;;;;;;13.39;82.80;98321.05;1813580;77;21140;-71
2021/08/26 00:08:26;;;;;;;2.30;1.42;;;;;;;13.41;83.07;98325.67;1783033;78;21037;-71
2021/08/26 00:10:53;;;;;;;1.67;1.30;;;;;;;13.41;83.58;98319.12;1803757;78;21022;-71
2021/08/26 00:13:22;;;;;;;2.55;1.50;;;;;;;13.40;83.02;98325.33;1799815;78;20916;-71
2021/08/26 00:15:48;;;;;;;1.62;1.10;;;;;;;13.38;83.02;98318.05;1802487;79;21097;-71
2021/08/26 00:18:18;;;;;;;1.40;0.98;;;;;;;13.35;83.06;98324.86;1777191;79;20998;-71
2021/08/26 00:20:49;;;;;;;1.80;1.10;;;;;;;13.30;82.86;98319.16;1790926;78;21614;-70
2021/08/26 00:23:14;;;;;;;3.42;1.32;;;;;;;13.24;83.24;98319.63;1793904;79;20951;-71
2021/08/26 00:25:40;;;;;;;3.73;1.50;;;;;;;13.16;83.10;98318.47;1791647;78;20985;-71
2021/08/26 00:28:07;;;;;;;2.05;1.50;;;;;;;13.11;83.07;98319.30;1797447;79;22315;-71
2021/08/26 00:30:33;;;;;;;2.50;1.50;;;;;;;13.11;83.01;98318.00;1794559;79;21006;-71
2021/08/26 00:33:00;;;;;;;2.75;1.60;;;;;;;13.09;83.01;98317.28;1797608;79;21029;-71
2021/08/26 00:35:27;;;;;;;2.67;1.40;;;;;;;13.06;82.97;98313.59;1794757;79;20981;-71
2021/08/26 00:37:53;;;;;;;4.85;2.02;;;;;;;13.04;83.01;98315.98;1791532;79;21049;-71
2021/08/26 00:40:20;;;;;;;2.77;2.00;;;;;;;13.00;83.22;98315.40;1799252;79;21055;-71
2021/08/26 00:42:46;;;;;;;3.22;1.85;;;;;;;12.94;83.36;98314.58;1789255;79;20990;-71
2021/08/26 00:45:13;;;;;;;4.43;2.03;;;;;;;12.88;83.41;98315.90;1796899;79;20927;-71
2021/08/26 00:47:47;;;;;;;2.05;1.55;;;;;;;12.85;83.50;98315.28;1739323;81;20894;-71
2021/08/26 00:50:16;;;;;;;2.60;2.12;;;;;;;12.85;83.59;98323.14;1793483;79;20971;-71
2021/08/26 00:52:42;;;;;;;2.22;1.72;;;;;;;12.83;83.48;98318.05;1774918;79;21951;-71
2021/08/26 00:55:10;;;;;;;4.60;2.72;;;;;;;12.74;83.44;98302.58;1791603;79;20983;-71
2021/08/26 00:57:37;;;;;;;3.37;1.55;;;;;;;12.90;83.44;98323.14;1791485;79;21020;-71
2021/08/26 01:00:11;;;;;;;7.83;2.37;;;;;;;12.92;83.36;98323.03;1790889;79;21018;-71
2021/08/26 01:02:52;;;;;;;5.55;1.90;;;;;;;12.94;83.36;98323.75;1789690;78;20928;-71
2021/08/26 01:05:42;;;;;;;4.08;2.00;;;;;;;12.92;83.38;98310.76;1792099;79;21070;-71
2021/08/26 01:08:17;;;;;;;3.27;1.77;;;;;;;12.99;83.43;98314.58;1790708;79;20969;-71
2021/08/26 01:10:47;;;;;;;3.27;2.30;;;;;;;13.04;83.44;98314.19;1796937;79;20997;-70
2021/08/26 01:13:14;;;;;;;4.37;2.08;;;;;;;13.08;83.50;98310.38;1793811;79;20979;-71
2021/08/26 01:16:03;;;;;;;4.10;2.15;;;;;;;13.10;83.62;98309.76;1795453;79;21043;-71
2021/08/26 01:18:35;;;;;;;5.33;2.10;;;;;;;13.08;83.71;98313.00;1791412;79;21687;-71
2021/08/26 01:21:04;;;;;;;4.87;2.72;;;;;;;13.05;85.08;98314.56;1785555;78;20956;-71
2021/08/26 01:23:35;;;;;;;5.03;2.75;;;;;;;12.93;84.57;98295.87;1815575;78;20930;-71
2021/08/26 01:26:05;;;;;;;3.77;2.42;;;;;;;13.04;84.42;98318.12;1816520;78;20985;-71
2021/08/26 01:28:38;;;;;;;4.75;2.75;;;;;;;13.04;84.20;98312.88;1795670;79;20932;-71
2021/08/26 01:31:05;;;;;;;3.80;2.83;;;;;;;13.05;84.40;98310.63;1801695;79;21083;-70
2021/08/26 01:33:33;;;;;;;8.35;2.98;;;;;;;13.05;84.36;98309.77;1801007;78;20971;-71
2021/08/26 01:36:03;;;;;;;4.62;2.60;;;;;;;13.07;84.55;98311.31;1800277;79;21527;-71
2021/08/26 01:38:30;;;;;;;6.97;3.50;;;;;;;13.08;84.54;98315.63;1801867;79;21629;-71
2021/08/26 01:40:57;;;;;;;5.25;2.27;;;;;;;13.07;86.24;98320.48;1800878;78;21003;-71
2021/08/26 01:43:23;;;;;;;4.93;2.87;;;;;;;13.04;85.41;98319.42;1802539;78;21094;-70
2021/08/26 01:45:50;;;;;;;4.58;2.80;;;;;;;13.01;85.05;98319.67;1802154;79;20978;-70
2021/08/26 01:48:21;;;;;;;4.87;2.60;;;;;;;13.00;85.02;98324.57;1799957;79;21028;-70
2021/08/26 01:50:50;;;;;;;6.42;2.83;;;;;;;13.00;85.02;98324.57;1800276;78;21567;-71
2021/08/26 01:53:17;;;;;;;4.22;2.27;;;;;;;12.89;84.71;98303.15;1802123;79;21015;-70
2021/08/26 01:55:45;;;;;;;4.08;2.65;;;;;;;13.00;84.84;98321.95;1800524;79;21834;-71
2021/08/26 01:58:16;;;;;;;8.83;2.85;;;;;;;12.96;84.76;98324.44;1800474;78;21006;-71
2021/08/26 02:00:44;;;;;;;4.95;2.58;;;;;;;12.94;84.70;98325.06;1801784;79;21508;-70
2021/08/26 02:03:10;;;;;;;5.50;2.83;;;;;;;12.90;84.88;98319.69;1800532;79;20978;-70
2021/08/26 02:05:37;;;;;;;3.87;2.50;;;;;;;12.86;85.14;98318.28;1802323;79;21081;-70
2021/08/26 02:08:04;;;;;;;5.80;2.37;;;;;;;12.82;84.89;98324.70;1800639;79;21065;-71
2021/08/26 02:10:31;;;;;;;3.50;2.37;;;;;;;12.79;84.85;98317.91;1798285;79;20982;-71
2021/08/26 02:12:57;;;;;;;5.37;2.67;;;;;;;12.76;84.84;98326.84;1799753;79;20958;-71
2021/08/26 02:15:24;;;;;;;3.65;2.42;;;;;;;12.76;84.91;98318.98;1799417;78;21016;-70
2021/08/26 02:17:51;;;;;;;4.50;2.58;;;;;;;12.75;84.92;98322.56;1801322;79;21046;-70
2021/08/26 02:20:17;;;;;;;6.60;2.13;;;;;;;12.75;84.89;98321.74;1797822;78;21093;-70
2021/08/26 02:22:44;;;;;;;9.07;2.20;;;;;;;12.75;84.91;98327.80;1800978;79;20891;-70
2021/08/26 02:25:12;;;;;;;4.60;2.13;;;;;;;12.66;85.09;98304.97;1800252;78;21501;-71
2021/08/26 02:27:39;;;;;;;5.45;2.35;;;;;;;12.76;84.92;98324.22;1799615;79;20997;-70
2021/08/26 02:30:08;;;;;;;4.17;2.20;;;;;;;12.78;84.97;98323.29;1800818;78;21628;-70
2021/08/26 02:32:35;;;;;;;4.28;2.40;;;;;;;12.80;85.01;98316.13;1801123;78;21836;-70
2021/08/26 02:35:03;;;;;;;;;;;;;;;12.81;85.01;98318.63;1801936;78;21109;-71
2021/08/26 02:37:29;;;;;;;2.30;1.77;;;;;;;12.84;85.11;98316.25;1798605;78;20165;-70
2021/08/26 02:39:56;;;;;;;4.67;2.75;;;;;;;12.88;85.09;98321.14;1798889;78;20975;-70
2021/08/26 02:42:23;;;;;;;4.00;2.00;;;;;;;12.91;85.08;98314.34;1801068;79;21034;-71
2021/08/26 02:44:50;;;;;;;3.62;1.90;;;;;;;12.90;85.03;98318.38;1800132;78;21166;-71
2021/08/26 02:47:17;;;;;;;4.97;1.82;;;;;;;12.93;85.06;98325.52;1798124;78;21037;-71
2021/08/26 02:49:43;;;;;;;3.10;1.93;;;;;;;12.92;85.03;98310.76;1798891;78;20955;-71
2021/08/26 02:52:11;;;;;;;5.93;2.20;;;;;;;12.92;85.01;98317.80;1800601;78;21326;-71
2021/08/26 02:54:38;;;;;;;2.35;1.70;;;;;;;12.91;85.05;98310.87;1800598;78;20994;-71
2021/08/26 02:57:05;;;;;;;3.05;2.00;;;;;;;12.92;85.01;98320.41;1800365;79;22042;-70
2021/08/26 02:59:32;;;;;;;4.28;1.87;;;;;;;12.90;84.98;98322.31;1798065;78;20977;-70
2021/08/26 03:01:59;;;;;;;2.50;1.47;;;;;;;12.90;85.04;98326.24;1802073;78;20986;-70
2021/08/26 03:04:26;;;;;;;3.93;1.93;;;;;;;12.91;85.20;98316.11;1799620;79;20947;-71
2021/08/26 03:06:52;;;;;;;3.22;1.90;;;;;;;12.92;85.14;98317.80;1800844;78;21001;-70
2021/08/26 03:09:19;;;;;;;3.47;1.60;;;;;;;12.93;85.17;98318.14;1798405;78;22286;-70
2021/08/26 03:11:46;;;;;;;2.55;1.42;;;;;;;12.94;85.08;98323.75;1801275;79;20987;-71
2021/08/26 03:14:12;;;;;;;3.43;1.60;;;;;;;12.94;85.11;98323.75;1800996;78;21588;-70
2021/08/26 03:16:39;;;;;;;4.80;1.87;;;;;;;12.94;85.08;98326.38;1797844;78;21050;-70
2021/08/26 03:19:06;;;;;;;2.02;1.57;;;;;;;12.94;85.10;98328.98;1789704;79;21030;-70
2021/08/26 03:21:33;;;;;;;5.90;2.07;;;;;;;12.91;85.07;98326.59;1792970;79;21101;-71
2021/08/26 03:24:00;;;;;;;4.78;1.70;;;;;;;12.88;85.01;98325.52;1795693;79;21006;-70
2021/08/26 03:26:26;;;;;;;3.37;1.80;;;;;;;12.82;84.98;98318.98;1788967;78;20930;-70
2021/08/26 03:28:53;;;;;;;3.80;1.95;;;;;;;12.77;84.98;98319.81;1789043;79;20978;-71
2021/08/26 03:31:20;;;;;;;2.95;1.57;;;;;;;12.72;85.03;98324.13;1792435;78;21038;-70
2021/08/26 03:33:46;;;;;;;2.67;1.50;;;;;;;12.69;85.09;98323.05;1776555;78;21876;-70
2021/08/26 03:36:13;;;;;;;6.83;1.62;;;;;;;12.69;85.12;98317.81;1778931;79;21470;-69
2021/08/26 03:38:41;;;;;;;2.93;1.70;;;;;;;12.66;85.10;98321.98;1791914;78;21028;-70
2021/08/26 03:41:08;;;;;;;6.47;1.92;;;;;;;12.65;85.09;98325.54;1793669;78;20982;-70
2021/08/26 03:43:34;;;;;;;4.45;2.40;;;;;;;12.61;85.03;98322.81;1790817;78;21078;-70
2021/08/26 03:46:01;;;;;;;6.33;2.40;;;;;;;12.58;85.00;98319.61;1788997;79;22139;-69
2021/08/26 03:48:28;;;;;;;4.80;2.37;;;;;;;12.50;84.92;98320.20;1789241;78;21541;-70
2021/08/26 03:50:54;;;;;;;4.33;2.60;;;;;;;12.45;85.01;98315.31;1790516;77;20999;-69
2021/08/26 03:53:21;;;;;;;5.33;2.33;;;;;;;12.43;85.03;98318.99;1790298;78;21435;-70
2021/08/26 03:55:48;;;;;;;3.60;2.50;;;;;;;12.38;85.07;98322.44;1790099;78;21555;-70
2021/08/26 03:58:15;;;;;;;3.47;2.70;;;;;;;12.36;85.09;98325.67;1788472;77;21502;-69
2021/08/26 04:00:41;;;;;;;3.73;2.90;;;;;;;12.33;85.07;98323.29;1792552;78;20945;-70
2021/08/26 04:03:08;;;;;;;6.43;3.10;;;;;;;12.29;85.12;98323.53;1792573;78;21023;-70
2021/08/26 04:05:35;;;;;;;4.40;3.37;;;;;;;12.27;85.14;98325.42;1787099;78;21022;-70
2021/08/26 04:08:01;;;;;;;7.40;4.20;;;;;;;12.28;85.20;98319.23;1794569;78;20989;-70
2021/08/26 04:10:28;;;;;;;4.90;3.77;;;;;;;12.29;85.18;98326.14;1789050;78;22286;-69
2021/08/26 04:12:55;;;;;;;6.67;4.20;;;;;;;12.30;85.22;98319.95;1789770;78;20995;-70
2021/08/26 04:15:22;;;;;;;22.67;4.15;;;;;;;12.31;85.19;98324.22;1788348;78;21087;-70
2021/08/26 04:17:48;;;;;;;7.20;4.95;;;;;;;12.30;85.19;98325.66;1789392;78;21012;-69
2021/08/26 04:20:15;;;;;;;33.60;7.53;;;;;;;12.31;85.23;98324.22;1787341;78;20930;-70
2021/08/26 04:22:42;;;;;;;15.98;5.67;;;;;;;12.34;85.35;98324.46;1788093;78;21998;-70
2021/08/26 04:25:10;;;;;;;27.40;6.27;;;;;;;12.44;85.21;98325.91;1777658;78;21032;-70
2021/08/26 04:27:36;;;;;;;;;;;;;;;12.44;85.21;98325.91;1814965;78;21646;-70
2021/08/26 04:30:06;;;;;;;120.07;15.87;;;;;;;12.49;85.52;98323.75;1783331;79;20800;-70
2021/08/26 04:32:33;;;;;;;51.65;7.72;;;;;;;12.57;85.51;98325.30;1815109;78;20918;-70
2021/08/26 04:34:59;;;;;;;65.22;10.90;;;;;;;12.65;85.53;98318.99;1779189;78;21074;-70
2021/08/26 04:37:26;;;;;;;62.38;19.92;;;;;;;12.71;85.43;98314.58;1782484;78;21003;-70
2021/08/26 04:39:53;;;;;;;61.13;16.67;;;;;;;12.75;85.42;98321.26;1814081;77;21118;-69
2021/08/26 04:42:20;;;;;;;51.37;12.83;;;;;;;12.76;85.33;98324.70;1775502;78;21576;-70
2021/08/26 04:44:47;;;;;;;25.08;9.80;;;;;;;12.79;85.35;98315.78;1779437;78;20902;-70
2021/08/26 04:47:14;;;;;;;47.05;12.15;;;;;;;12.80;85.37;98316.13;1815076;78;21049;-70
2021/08/26 04:49:40;;;;;;;34.70;12.07;;;;;;;12.87;85.45;98319.94;1805652;78;20974;-69
2021/08/26 04:52:07;;;;;;;68.57;11.90;;;;;;;12.95;85.42;98321.48;1796818;78;20991;-70
2021/08/26 04:54:34;;;;;;;81.23;19.37;;;;;;;13.03;85.43;98322.19;1795403;78;20911;-70
2021/08/26 04:57:00;;;;;;;54.23;11.93;;;;;;;13.09;85.43;98314.66;1797109;78;21012;-70
2021/08/26 04:59:27;;;;;;;18.83;8.67;;;;;;;13.19;85.50;98324.77;1797064;78;21116;-69
2021/08/26 05:01:53;;;;;;;44.60;12.60;;;;;;;13.38;85.54;98314.95;1799484;78;21515;-70
2021/08/26 05:04:24;;;;;;;70.45;15.55;;;;;;;13.38;85.54;98314.95;1800966;78;20924;-70
2021/08/26 05:06:52;;;;;;;28.55;9.40;;;;;;;13.62;85.44;98316.06;1796380;78;20963;-70
2021/08/26 05:09:20;;;;;;;12.28;5.62;;;;;;;13.62;85.44;98316.06;1796304;78;20929;-70
2021/08/26 05:11:47;;;;;;;;;;;;;;;13.68;85.17;98312.59;1804436;78;21450;-70
2021/08/26 05:14:13;;;;;;;170.00;30.05;;;;;;;13.70;85.21;98313.30;1795558;78;20097;-70
2021/08/26 05:16:40;;;;;;;14.10;3.73;;;;;;;13.69;85.11;98319.48;1796681;78;21039;-69
2021/08/26 05:19:06;;;;;;;197.22;32.85;;;;;;;13.66;84.93;98321.39;1778308;78;21695;-69
2021/08/26 05:21:35;;;;;;;105.20;21.07;;;;;;;13.64;85.06;98316.78;1746454;80;21040;-70
2021/08/26 05:24:15;;;;;;;7.95;2.65;;;;;;;13.64;85.02;98318.09;1745666;80;21163;-69
2021/08/26 05:26:48;;;;;;;5.53;2.87;;;;;;;13.59;84.83;98322.88;1745751;80;21028;-69
2021/08/26 05:29:17;;;;;;;1.92;1.30;;;;;;;13.56;84.75;98323.13;1751626;80;21017;-70
2021/08/26 05:31:44;;;;;;;1.67;1.20;;;;;;;13.35;84.91;98322.23;1741051;81;21643;-70
2021/08/26 05:34:11;;;;;;;1.40;1.00;;;;;;;13.28;84.84;98323.70;1753494;79;21608;-70
2021/08/26 05:36:38;;;;;;;2.45;0.98;;;;;;;13.23;84.91;98316.66;1772808;80;21071;-70
2021/08/26 05:39:04;;;;;;;2.72;1.15;;;;;;;13.26;85.09;98322.99;1745972;81;21731;-70
2021/08/26 05:41:31;;;;;;;8.70;1.00;;;;;;;13.32;85.15;98318.56;1746051;81;21159;-70
2021/08/26 05:43:58;;;;;;;3.22;1.22;;;;;;;13.39;85.09;98324.98;1774890;80;21432;-69
2021/08/26 05:46:25;;;;;;;1.43;1.10;;;;;;;13.47;85.11;98326.51;1746978;80;20968;-73
2021/08/26 05:48:51;;;;;;;1.07;0.88;;;;;;;13.51;85.13;98325.28;1747558;81;21155;-67
2021/08/26 05:51:18;;;;;;;3.83;1.20;;;;;;;13.42;84.98;98309.00;1747720;80;21008;-68
2021/08/26 05:53:45;;;;;;;2.67;1.30;;;;;;;13.55;84.85;98330.62;1776227;80;21009;-70
2021/08/26 05:56:11;;;;;;;2.17;1.05;;;;;;;13.62;84.96;98332.28;1760893;81;21546;-64
2021/08/26 05:58:38;;;;;;;1.57;0.97;;;;;;;13.50;84.68;98323.63;1737056;81;20981;-63
2021/08/26 06:01:05;;;;;;;1.43;1.30;;;;;;;13.44;85.13;98334.59;1737020;80;21048;-65
2021/08/26 06:03:33;;;;;;;1.72;0.75;;;;;;;13.41;84.96;98335.70;1746681;81;20968;-64
2021/08/26 06:06:00;;;;;;;1.40;0.70;;;;;;;13.52;85.19;98332.19;1744271;80;21563;-64
2021/08/26 06:08:29;;;;;;;1.57;0.80;;;;;;;13.57;84.92;98331.34;1739890;81;21033;-64
2021/08/26 06:10:56;;;;;;;2.15;1.02;;;;;;;13.61;84.80;98334.08;1753114;79;21616;-65
2021/08/26 06:13:27;;;;;;;2.75;0.80;;;;;;;13.59;84.70;98335.98;1741335;80;21095;-65
2021/08/26 06:15:55;;;;;;;3.70;0.98;;;;;;;13.58;84.72;98335.64;1769684;79;20984;-65
2021/08/26 06:18:46;;;;;;;;;;;;;;;;;;;;;
2021/08/26 06:21:35;;;;;;;35.45;8.00;;;;;;;13.78;85.07;98339.70;1777441;78;21572;-65
2021/08/26 06:24:15;;;;;;;5.35;1.30;;;;;;;14.06;85.21;98341.73;1771466;80;21490;-66
2021/08/26 06:26:52;;;;;;;3.70;1.27;;;;;;;14.21;84.51;98346.65;1815563;77;21472;-63
2021/08/26 06:29:20;;;;;;;2.75;0.88;;;;;;;14.17;84.30;98347.85;1778407;79;20992;-63
2021/08/26 06:31:48;;;;;;;6.00;1.87;;;;;;;14.29;84.32;98345.52;1748724;80;21505;-63
2021/08/26 06:34:22;;;;;;;3.02;1.45;;;;;;;14.52;84.63;98350.99;1790296;78;20986;-64
2021/08/26 06:37:02;;;;;;;2.33;1.60;;;;;;;15.27;85.30;98341.02;1785707;78;21734;-64
2021/08/26 06:39:43;;;;;;;;;;;;;;;;;;;;;
2021/08/26 06:42:03;;;;;;;1.45;0.78;;;;;;;16.90;83.95;98339.30;1782679;78;21068;-64
2021/08/26 06:44:30;;;;;;;1.00;0.75;;;;;;;17.36;80.91;98334.85;1767470;78;21066;-65
2021/08/26 06:47:03;;;;;;;31.20;4.62;;;;;;;17.02;79.97;98339.92;1792038;79;21536;-66
2021/08/26 06:49:31;;;;;;;2.67;0.90;;;;;;;17.23;82.04;98342.65;1797589;78;20998;-65
2021/08/26 06:51:59;;;;;;;1.72;0.40;;;;;;;17.44;78.56;98342.86;1796693;79;21188;-65
2021/08/26 06:54:32;;;;;;;1.57;0.60;;;;;;;17.34;78.98;98343.43;1791944;78;20949;-64
2021/08/26 06:57:06;;;;;;;2.35;0.60;;;;;;;17.24;79.93;98347.43;1792585;79;20988;-64
2021/08/26 07:02:37;;;;;;;1.45;0.60;;;;;;;16.80;79.66;98343.77;1757680;78;21530;-64
2021/08/26 07:05:06;;;;;;;12.58;2.30;;;;;;;16.59;78.21;98344.80;1779567;80;21286;-64
2021/08/26 07:07:39;;;;;;;1.35;0.68;;;;;;;16.66;80.40;98337.96;1781917;78;21439;-64
2021/08/26 07:10:08;;;;;;;3.12;0.80;;;;;;;17.11;81.08;98339.03;1752336;79;20990;-65
2021/08/26 07:12:37;;;;;;;1.47;0.50;;;;;;;17.35;80.08;98339.31;1776296;79;20985;-65
2021/08/26 07:15:09;;;;;;;94.58;17.12;;;;;;;17.94;80.18;98337.07;1813413;77;21562;-64
2021/08/26 07:17:36;;;;;;;2.83;1.00;;;;;;;17.86;79.14;98334.36;1812108;77;21091;-64
2021/08/26 07:20:06;;;;;;;1.85;0.60;;;;;;;17.64;77.18;98341.75;1779631;78;21045;-64
2021/08/26 07:22:38;;;;;;;18.57;2.45;;;;;;;17.09;78.16;98344.47;1728905;80;21578;-64
2021/08/26 07:25:10;;;;;;;87.08;14.58;;;;;;;16.96;79.16;98342.66;1756004;80;21221;-64
2021/08/26 07:27:41;;;;;;;29.80;5.17;;;;;;;17.07;80.08;98349.05;1776549;79;20997;-64
2021/08/26 07:30:09;;;;;;;159.52;20.48;;;;;;;17.46;80.48;98346.18;1782881;78;21071;-64
2021/08/26 07:32:36;;;;;;;8.05;2.00;;;;;;;17.65;79.99;98339.44;1779836;79;21102;-64
2021/08/26 07:35:04;;;;;;;;;;;;;;;17.82;79.02;98344.91;1777905;78;20996;-64
2021/08/26 07:37:33;;;;;;;71.70;12.18;;;;;;;17.77;78.87;98341.85;1776760;79;20256;-65
2021/08/26 07:40:00;;;;;;;1.80;0.30;;;;;;;18.04;79.19;98345.74;1778068;78;21024;-64
2021/08/26 07:42:27;;;;;;;0.40;0.30;;;;;;;17.97;77.94;98343.86;1775865;79;21018;-64
2021/08/26 07:45:02;;;;;;;15.25;1.12;;;;;;;17.74;76.89;98348.76;1774599;79;21076;-64
2021/08/26 07:47:24;;;;;;;0.78;0.30;;;;;;;17.68;77.98;98356.30;1774916;79;22689;-64
2021/08/26 07:49:50;;;;;;;0.50;0.30;;;;;;;17.60;77.10;98350.94;1774848;79;21071;-64
2021/08/26 07:52:17;;;;;;;2.02;0.20;;;;;;;17.64;77.38;98347.03;1775847;79;21667;-63
2021/08/26 07:54:45;;;;;;;2.30;0.20;;;;;;;17.71;77.53;98355.66;1779201;78;22161;-63
2021/08/26 07:57:12;;;;;;;18.25;1.77;;;;;;;17.56;76.47;98350.91;1770482;79;20980;-64
2021/08/26 07:59:40;;;;;;;16.12;1.17;;;;;;;17.49;76.49;98355.11;1774023;79;21180;-64
2021/08/26 08:02:12;;;;;;;1.80;0.30;;;;;;;17.52;77.42;98361.41;1771862;80;20984;-64
2021/08/26 08:04:42;;;;;;;7.92;0.90;;;;;;;17.66;77.38;98362.20;1779301;80;21045;-65
2021/08/26 08:07:10;;;;;;;5.78;0.55;;;;;;;17.74;76.82;98357.50;1783008;78;21126;-65
2021/08/26 08:09:40;;;;;;;0.60;0.35;;;;;;;17.62;75.86;98367.46;1759047;80;20997;-65
2021/08/26 08:12:08;;;;;;;2.70;0.30;;;;;;;17.44;75.25;98366.60;1759572;79;20989;-66
2021/08/26 08:14:35;;;;;;;15.98;3.10;;;;;;;17.22;75.10;98368.70;1792801;78;21012;-65
2021/08/26 08:17:02;;;;;;;1.65;0.40;;;;;;;17.28;75.84;98369.06;1758458;79;25629;-66
2021/08/26 08:19:31;;;;;;;0.72;0.30;;;;;;;17.23;75.13;98366.88;1782471;78;21445;-66
2021/08/26 08:21:59;;;;;;;5.60;1.27;;;;;;;17.10;75.55;98363.27;1725868;80;20941;-66
2021/08/26 08:24:29;;;;;;;3.98;0.40;;;;;;;17.25;75.66;98362.77;1759332;80;21000;-65
2021/08/26 08:26:57;;;;;;;1.55;0.30;;;;;;;17.30;74.69;98365.79;1751706;80;20894;-66
2021/08/26 08:29:24;;;;;;;0.70;0.23;;;;;;;17.17;73.29;98364.34;1782083;79;21550;-65
2021/08/26 08:31:54;;;;;;;;;;;;;;;17.05;74.04;98356.28;1758594;80;21443;-66
2021/08/26 08:34:25;;;;;;;0.60;0.23;;;;;;;17.14;74.20;98365.97;1716207;81;20100;-66
2021/08/26 08:36:53;;;;;;;3.02;0.70;;;;;;;16.95;73.89;98364.74;1755685;79;20946;-65
2021/08/26 08:39:21;;;;;;;3.55;0.78;;;;;;;16.58;73.63;98376.09;1779206;79;20941;-66
2021/08/26 08:41:52;;;;;;;0.82;0.20;;;;;;;16.08;73.01;98388.17;1757639;80;20970;-65
2021/08/26 08:44:20;;;;;;;0.75;0.40;;;;;;;15.49;72.16;98403.53;1729490;80;21850;-66
2021/08/26 08:46:54;;;;;;;0.20;0.10;;;;;;;14.93;73.50;98399.17;1757555;80;21007;-65
2021/08/26 08:49:22;;;;;;;0.50;0.28;;;;;;;14.45;74.59;98402.36;1762964;80;20943;-65
2021/08/26 08:51:55;;;;;;;0.65;0.13;;;;;;;14.16;75.08;98407.88;1754304;80;20968;-65
2021/08/26 08:54:24;;;;;;;0.82;0.10;;;;;;;13.84;75.63;98412.69;1774286;78;21751;-66
2021/08/26 08:56:51;;;;;;;0.50;0.20;;;;;;;13.54;75.92;98419.44;1724766;81;22630;-66
2021/08/26 08:59:20;;;;;;;2.22;0.30;;;;;;;13.39;76.05;98421.98;1733126;80;20961;-65
2021/08/26 09:01:54;;;;;;;0.55;0.20;;;;;;;13.34;76.59;98428.06;1770333;79;20954;-67
2021/08/26 09:04:26;;;;;;;1.22;0.33;;;;;;;13.45;76.60;98430.67;1775285;79;20910;-66
2021/08/26 09:06:53;;;;;;;0.30;0.30;;;;;;;13.58;77.06;98427.43;1769755;79;21005;-66
2021/08/26 09:09:20;;;;;;;;;;;;;;;13.69;76.70;98425.72;1776125;78;21436;-66
2021/08/26 09:11:59;;;;;;;1.35;0.20;;;;;;;13.88;76.60;98437.70;1776082;78;20088;-66
2021/08/26 09:14:31;;;;;;;1.22;0.25;;;;;;;13.91;76.51;98438.76;1738907;80;21114;-66
2021/08/26 09:17:02;;;;;;;1.05;0.30;;;;;;;14.07;76.02;98441.80;1750553;80;20978;-66
2021/08/26 09:19:34;;;;;;;0.13;0.13;;;;;;;14.15;75.97;98440.35;1760548;80;20879;-66
2021/08/26 09:22:06;;;;;;;0.37;0.20;;;;;;;14.28;75.65;98449.72;1709184;80;21396;-66
2021/08/26 09:24:52;;;;;;;0.45;0.20;;;;;;;14.36;75.33;98453.00;1793635;78;21041;-66
2021/08/26 09:27:41;;;;;;;4.92;0.55;;;;;;;14.51;75.96;98455.67;1764963;78;20954;-66
2021/08/26 09:30:16;;;;;;;4.03;0.70;;;;;;;14.74;75.65;98456.88;1793493;78;21845;-66
2021/08/26 09:32:48;;;;;;;0.25;0.13;;;;;;;15.04;76.29;98460.47;1788805;78;20914;-65
2021/08/26 09:35:29;;;;;;;2.85;0.25;;;;;;;15.34;75.55;98463.09;1768473;79;22282;-67
2021/08/26 09:38:06;;;;;;;1.52;0.50;;;;;;;15.51;75.78;98466.05;1776810;79;20978;-66
2021/08/26 09:40:47;;;;;;;0.45;0.28;;;;;;;15.72;75.78;98471.27;1776034;79;21097;-65
2021/08/26 09:43:18;;;;;;;1.30;0.35;;;;;;;16.06;76.14;98465.14;1769812;79;22269;-66
2021/08/26 09:45:49;;;;;;;0.17;0.17;;;;;;;16.30;75.01;98466.05;1780954;78;21020;-66
2021/08/26 09:48:18;;;;;;;1.15;0.28;;;;;;;16.27;74.15;98473.75;1780598;79;21139;-65
2021/08/26 09:50:50;;;;;;;1.05;0.35;;;;;;;16.19;74.49;98464.39;1793383;78;21621;-65
2021/08/26 09:53:25;;;;;;;1.05;0.30;;;;;;;16.16;74.42;98463.81;1755586;79;21080;-65
2021/08/26 09:55:56;;;;;;;0.80;0.20;;;;;;;16.29;75.00;98467.84;1787100;78;21569;-64
2021/08/26 09:58:35;;;;;;;0.55;0.25;;;;;;;16.61;75.29;98469.35;1758865;78;21582;-64
2021/08/26 10:01:20;;;;;;;1.22;0.40;;;;;;;16.87;75.08;98469.59;1779360;78;21077;-64
2021/08/26 10:03:50;;;;;;;1.40;0.30;;;;;;;17.01;74.69;98474.90;1772883;80;20906;-65
2021/08/26 10:06:19;;;;;;;1.95;0.20;;;;;;;17.13;74.54;98476.37;1725330;78;21388;-65
2021/08/26 10:08:49;;;;;;;2.05;0.30;;;;;;;16.87;73.20;98468.77;1804069;78;21649;-64
2021/08/26 10:11:21;;;;;;;0.65;0.20;;;;;;;16.45;72.01;98480.45;1785967;78;21691;-64
2021/08/26 10:13:50;;;;;;;0.95;0.28;;;;;;;15.86;72.60;98482.23;1764108;79;21523;-65
2021/08/26 10:16:20;;;;;;;0.55;0.20;;;;;;;15.58;73.18;98479.03;1786573;78;21181;-65
2021/08/26 10:18:48;;;;;;;0.78;0.17;;;;;;;15.53;73.75;98474.65;1793220;78;21017;-64
2021/08/26 10:21:20;;;;;;;2.15;0.30;;;;;;;15.33;73.15;98474.58;1761204;79;21609;-65
2021/08/26 10:23:50;;;;;;;1.57;0.23;;;;;;;15.10;73.20;98475.75;1795498;78;21553;-64
2021/08/26 10:26:24;;;;;;;0.30;0.20;;;;;;;15.06;74.02;98474.33;1761755;79;21017;-64
2021/08/26 10:28:57;;;;;;;0.20;0.20;;;;;;;15.27;73.94;98481.70;1772105;78;21509;-65
2021/08/26 10:31:31;;;;;;;0.80;0.17;;;;;;;15.26;73.83;98477.37;1757957;79;20988;-65
2021/08/26 10:34:39;;;;;;;0.68;0.10;;;;;;;15.31;74.15;98476.50;1791029;79;21411;-64
2021/08/26 10:37:23;;;;;;;2.08;0.40;;;;;;;15.25;73.51;98478.36;1671920;83;20974;-64
2021/08/26 10:39:57;;;;;;;2.02;0.40;;;;;;;15.30;73.71;98488.00;1637222;85;21083;-64
2021/08/26 10:42:42;;;;;;;0.62;0.30;;;;;;;15.22;73.64;98490.45;1655907;85;21059;-64
2021/08/26 10:45:26;;;;;;;0.53;0.25;;;;;;;15.37;73.44;98494.38;1657005;85;21055;-64
2021/08/26 10:48:00;;;;;;;1.20;0.30;;;;;;;15.33;73.27;98490.36;1661204;84;21073;-64
2021/08/26 10:50:39;;;;;;;10.40;1.10;;;;;;;15.26;73.20;98494.47;1686504;84;21031;-64
2021/08/26 10:53:12;;;;;;;;;;;;;;;15.15;73.24;98498.50;1678068;84;21430;-64
2021/08/26 10:55:59;;;;;;;0.95;0.40;;;;;;;15.33;73.52;98506.14;1650030;84;20496;-64
2021/08/26 10:58:35;;;;;;;0.72;0.28;;;;;;;15.37;73.48;98506.21;1684156;83;21863;-65
2021/08/26 11:01:11;;;;;;;1.20;0.20;;;;;;;15.39;73.65;98506.09;1665258;84;21777;-66
2021/08/26 11:03:46;;;;;;;0.85;0.30;;;;;;;15.12;72.52;98503.54;1682938;83;21041;-64
2021/08/26 11:06:31;;;;;;;1.17;0.20;;;;;;;14.85;72.57;98511.16;1688910;83;21677;-65
2021/08/26 11:09:19;;;;;;;0.23;0.20;;;;;;;14.76;72.93;98502.27;1682337;84;20989;-65
2021/08/26 11:12:23;;;;;;;1.30;0.30;;;;;;;14.97;73.82;98501.75;1666680;84;21669;-65
2021/08/26 11:14:57;;;;;;;0.65;0.30;;;;;;;15.24;73.71;98504.31;1687605;84;21602;-64
2021/08/26 11:17:28;;;;;;;0.65;0.20;;;;;;;15.55;73.70;98496.40;1644971;84;21024;-65
2021/08/26 11:19:56;;;;;;;0.17;0.10;;;;;;;16.14;73.68;98507.91;1687291;83;21074;-64
2021/08/26 11:22:25;;;;;;;1.05;0.47;;;;;;;16.31;71.98;98501.45;1662139;84;21088;-65
2021/08/26 11:24:59;;;;;;;0.37;0.30;;;;;;;16.28;71.20;98503.05;1684166;83;20958;-64
2021/08/26 11:27:29;;;;;;;1.75;0.40;;;;;;;16.28;71.70;98509.64;1688092;84;21531;-64
2021/08/26 11:29:58;;;;;;;0.42;0.25;;;;;;;16.25;71.34;98513.88;1684202;84;21033;-65
2021/08/26 11:32:26;;;;;;;0.93;0.40;;;;;;;16.17;69.73;98516.36;1686134;83;21346;-65
2021/08/26 11:34:57;;;;;;;3.08;0.50;;;;;;;16.32;70.60;98511.02;1683734;83;21777;-65
2021/08/26 11:37:32;;;;;;;1.10;0.40;;;;;;;16.31;70.89;98503.27;1653371;83;21387;-65
2021/08/26 11:40:10;;;;;;;0.95;0.37;;;;;;;16.58;72.02;98506.98;1676827;83;21002;-65
2021/08/26 11:42:47;;;;;;;0.40;0.20;;;;;;;17.06;71.78;98508.27;1675748;83;21058;-64
2021/08/26 11:45:21;;;;;;;0.20;0.20;;;;;;;17.44;71.00;98505.13;1652010;85;21034;-65
2021/08/26 11:48:04;;;;;;;1.00;0.35;;;;;;;17.57;68.91;98512.23;1680403;83;21575;-65
2021/08/26 11:50:39;;;;;;;0.40;0.30;;;;;;;17.02;68.92;98509.51;1679083;84;20993;-64
2021/08/26 11:53:12;;;;;;;1.07;0.30;;;;;;;16.67;68.81;98518.85;1677320;83;20979;-64
2021/08/26 11:55:47;;;;;;;1.35;0.50;;;;;;;16.61;68.49;98516.78;1678003;83;20974;-64